Littleton, Illinois
Current Conditions -  °F | °C
As of 12:15 PM on Monday 26 Jan 2015 (Local Time) from KMQB Reporting Station
Overcast Overcast  
Wind Chill: 20°   Ceiling: 700
Heat Index: 29°   Visibility: 7mi
Dew Point: 28°   Wind: 12mph
Humidity: 94%   Direction: 160°SSE
Pressure: 29.89"   Gusts: NA
Location:  40.23°N, 90.62°W
Report Text: KMQB 261815Z AUTO 16010KT 7SM OVC007 M01/M02 A2989 RMK AO2 T10151023
Loading
Personal Weather Stations






























Interactive Weather Map New forecast layout! Learn more

10-Day Weather Forecast

Advertisements
Track Severe Weather on mobile